createdAt,value
2019-04-07T00:01:38.988Z,95514.27
2019-04-07T00:04:05.288Z,95517.67
2019-04-07T00:06:31.661Z,95508.94
2019-04-07T00:08:57.743Z,95505.54
2019-04-07T00:11:23.593Z,95508.61
2019-04-07T00:13:49.970Z,95511.02
2019-04-07T00:16:15.867Z,95511.91
2019-04-07T00:18:41.725Z,95516.52
2019-04-07T00:21:07.548Z,95522.12
2019-04-07T00:23:33.569Z,95513.69
2019-04-07T00:26:00.159Z,95510.77
2019-04-07T00:28:26.104Z,95510.77
2019-04-07T00:30:51.945Z,95510.77
2019-04-07T00:33:18.159Z,95511.11
2019-04-07T00:35:44.619Z,95509.57
2019-04-07T00:38:10.497Z,95505.52
2019-04-07T00:40:37.070Z,95507.06
2019-04-07T00:43:03.415Z,95504.97
2019-04-07T00:45:29.501Z,95503.44
2019-04-07T00:47:55.915Z,95500.03
2019-04-07T00:50:21.991Z,95493.66
2019-04-07T00:52:48.035Z,95490.92
2019-04-07T00:55:14.219Z,95490.92
2019-04-07T00:57:40.725Z,95496.30
2019-04-07T01:00:08.653Z,95496.30
2019-04-07T01:02:34.627Z,95490.48
2019-04-07T01:05:00.460Z,95483.79
2019-04-07T01:07:26.656Z,95495.09
2019-04-07T01:09:53.165Z,95495.42
2019-04-07T01:12:19.309Z,95492.68
2019-04-07T01:14:45.184Z,95492.68
2019-04-07T01:17:11.532Z,95482.50
2019-04-07T01:19:38.111Z,95486.88
2019-04-07T01:22:04.058Z,95484.23
2019-04-07T01:24:29.917Z,95489.06
2019-04-07T01:26:55.876Z,95485.02
2019-04-07T01:29:21.717Z,95483.92
2019-04-07T01:31:47.533Z,95486.55
2019-04-07T01:34:13.490Z,95488.19
2019-04-07T01:36:39.337Z,95490.17
2019-04-07T01:39:07.680Z,95480.84
2019-04-07T01:41:35.613Z,95484.45
2019-04-07T01:44:06.108Z,95484.45
2019-04-07T01:46:37.067Z,95474.48
2019-04-07T01:49:04.958Z,95493.14
2019-04-07T01:51:42.220Z,95485.23
2019-04-07T01:54:28.348Z,95490.06
2019-04-07T01:57:13.470Z,95479.22
2019-04-07T01:59:54.039Z,95479.22
2019-04-07T02:02:31.095Z,95478.53
2019-04-07T02:05:01.929Z,95475.92
2019-04-07T02:07:35.905Z,95475.92
2019-04-07T02:10:21.467Z,95479.65
2019-04-07T02:13:01.176Z,95479.65
2019-04-07T02:15:31.916Z,95473.17
2019-04-07T02:18:11.556Z,95476.80
2019-04-07T02:20:57.885Z,95480.51
2019-04-07T02:23:34.380Z,95460.13
2019-04-07T02:26:04.900Z,95460.13
2019-04-07T02:28:35.793Z,95480.97
2019-04-07T02:31:06.561Z,95472.72
2019-04-07T02:33:43.829Z,95468.23
2019-04-07T02:36:31.306Z,95478.33
2019-04-07T02:39:09.898Z,95478.33
2019-04-07T02:41:53.667Z,95484.58
2019-04-07T02:44:22.047Z,95477.66
2019-04-07T02:46:49.863Z,95481.40
2019-04-07T02:49:20.629Z,95479.53
2019-04-07T02:51:51.125Z,95479.53
2019-04-07T02:54:22.680Z,95479.44
2019-04-07T02:56:54.291Z,95479.44
2019-04-07T02:59:41.069Z,95474.48
2019-04-07T03:02:12.710Z,95480.73
2019-04-07T03:04:57.068Z,95484.23
2019-04-07T03:07:39.685Z,95483.93
2019-04-07T03:10:17.081Z,95495.44
2019-04-07T03:12:48.609Z,95490.18
2019-04-07T03:15:17.121Z,95494.55
2019-04-07T03:18:03.170Z,95494.98
2019-04-07T03:20:31.130Z,95498.50
2019-04-07T03:23:02.168Z,95489.63
2019-04-07T03:25:46.873Z,95498.41
2019-04-07T03:28:14.612Z,95498.41
2019-04-07T03:30:47.208Z,95501.57
2019-04-07T03:33:26.025Z,95501.57
2019-04-07T03:36:01.048Z,95505.08
2019-04-07T03:38:27.392Z,95500.70
2019-04-07T03:40:55.250Z,95501.66
2019-04-07T03:43:38.019Z,95492.33
2019-04-07T03:46:06.107Z,95492.33
2019-04-07T03:48:43.469Z,95499.34
2019-04-07T03:51:14.939Z,95486.94
2019-04-07T03:53:48.969Z,95486.94
2019-04-07T03:56:16.699Z,95482.89
2019-04-07T03:58:53.757Z,95491.33
2019-04-07T04:01:22.229Z,95487.49
2019-04-07T04:04:07.330Z,95490.42
2019-04-07T04:06:50.275Z,95490.42
2019-04-07T04:09:22.237Z,95489.98
2019-04-07T04:12:01.924Z,95492.80
2019-04-07T04:14:41.868Z,95495.42
2019-04-07T04:17:08.250Z,95490.93
2019-04-07T04:19:34.851Z,95490.93
2019-04-07T04:22:00.706Z,95485.19
2019-04-07T04:24:26.706Z,95490.23
2019-04-07T04:26:53.651Z,95498.33
2019-04-07T04:29:20.158Z,95501.84
2019-04-07T04:31:47.257Z,95494.67
2019-04-07T04:34:13.938Z,95494.67
2019-04-07T04:36:40.451Z,95488.42
2019-04-07T04:39:06.643Z,95497.13
2019-04-07T04:41:32.969Z,95495.15
2019-04-07T04:44:00.421Z,95495.15
2019-04-07T04:46:26.357Z,95497.53
2019-04-07T04:48:52.506Z,95496.58
2019-04-07T04:51:18.430Z,95506.22
2019-04-07T04:53:44.741Z,95501.73
2019-04-07T04:56:11.335Z,95506.69
2019-04-07T04:58:37.900Z,95504.40
2019-04-07T05:01:04.491Z,95515.03
2019-04-07T05:03:30.490Z,95516.45
2019-04-07T05:05:56.424Z,95516.45
2019-04-07T05:08:22.254Z,95515.13
2019-04-07T05:10:48.266Z,95518.53
2019-04-07T05:13:14.165Z,95518.34
2019-04-07T05:15:40.038Z,95518.57
2019-04-07T05:18:06.453Z,95529.52
2019-04-07T05:20:32.300Z,95527.77
2019-04-07T05:22:58.624Z,95527.59
2019-04-07T05:25:24.960Z,95538.14
2019-04-07T05:27:50.859Z,95538.14
2019-04-07T05:30:16.868Z,95530.88
2019-04-07T05:32:43.187Z,95532.14
2019-04-07T05:35:09.172Z,95529.86
2019-04-07T05:37:35.028Z,95529.86
2019-04-07T05:40:02.934Z,95540.19
2019-04-07T05:42:28.884Z,95549.19
2019-04-07T05:44:55.167Z,95549.19
2019-04-07T05:47:21.278Z,95548.84
2019-04-07T05:49:47.713Z,95555.45
2019-04-07T05:52:13.970Z,95557.44
2019-04-07T05:54:40.411Z,95557.44
2019-04-07T05:57:06.243Z,95563.02
2019-04-07T05:59:32.109Z,95563.02
2019-04-07T06:02:00.725Z,95565.75
2019-04-07T06:04:26.057Z,95569.01
2019-04-07T06:06:54.998Z,95560.23
2019-04-07T06:09:20.787Z,95575.30
2019-04-07T06:11:46.965Z,95575.30
2019-04-07T06:14:15.091Z,95578.56
2019-04-07T06:16:41.671Z,95571.42
2019-04-07T06:19:08.096Z,95578.66
2019-04-07T06:21:34.851Z,95580.36
2019-04-07T06:24:00.838Z,95580.36
2019-04-07T06:26:26.668Z,95577.20
2019-04-07T06:28:57.390Z,95572.22
2019-04-07T06:31:21.557Z,95567.41
2019-04-07T06:33:47.979Z,95567.41
2019-04-07T06:36:17.543Z,95572.77
2019-04-07T06:38:46.501Z,95578.81
2019-04-07T06:41:09.343Z,95584.30
2019-04-07T06:43:40.025Z,95584.30
2019-04-07T06:46:26.088Z,95579.03
2019-04-07T06:49:11.293Z,95577.26
2019-04-07T06:51:50.198Z,95584.81
2019-04-07T06:54:20.513Z,95584.81
2019-04-07T06:56:51.178Z,95573.45
2019-04-07T06:59:36.093Z,95584.30
2019-04-07T07:02:20.814Z,95579.19
2019-04-07T07:04:48.637Z,95594.74
2019-04-07T07:07:22.684Z,95594.74
2019-04-07T07:09:54.798Z,95592.20
2019-04-07T07:12:30.932Z,95592.20
2019-04-07T07:15:09.154Z,95591.84
2019-04-07T07:17:43.083Z,95591.84
2019-04-07T07:20:11.269Z,95591.85
2019-04-07T07:22:53.994Z,95596.09
2019-04-07T07:25:20.429Z,95595.45
2019-04-07T07:27:46.321Z,95591.05
2019-04-07T07:30:12.249Z,95591.05
2019-04-07T07:32:38.942Z,95598.11
2019-04-07T07:35:05.585Z,95604.77
2019-04-07T07:37:32.054Z,95597.61
2019-04-07T07:39:57.971Z,95600.81
2019-04-07T07:42:24.384Z,95605.66
2019-04-07T07:44:50.417Z,95613.02
2019-04-07T07:47:17.631Z,95610.63
2019-04-07T07:49:44.391Z,95612.05
2019-04-07T07:52:10.422Z,95615.95
2019-04-07T07:54:36.792Z,95623.49
2019-04-07T07:57:02.822Z,95626.73
2019-04-07T07:59:33.551Z,95622.30
2019-04-07T08:01:56.503Z,95621.62
2019-04-07T08:04:24.908Z,95621.62
2019-04-07T08:06:50.229Z,95613.34
2019-04-07T08:09:21.436Z,95613.34
2019-04-07T08:11:44.537Z,95625.70
2019-04-07T08:14:15.162Z,95622.16
2019-04-07T08:16:39.007Z,95619.39
2019-04-07T08:19:08.470Z,95630.00
2019-04-07T08:21:33.699Z,95631.52
2019-04-07T08:24:01.347Z,95632.72
2019-04-07T08:26:27.839Z,95626.19
2019-04-07T08:28:54.695Z,95633.78
2019-04-07T08:31:21.555Z,95636.33
2019-04-07T08:33:50.308Z,95630.24
2019-04-07T08:36:15.336Z,95622.98
2019-04-07T08:38:41.215Z,95622.42
2019-04-07T08:41:10.175Z,95626.80
2019-04-07T08:43:35.171Z,95625.16
2019-04-07T08:46:04.374Z,95615.51
2019-04-07T08:48:28.969Z,95615.66
2019-04-07T08:50:57.270Z,95620.23
2019-04-07T08:53:22.955Z,95619.63
2019-04-07T08:55:50.059Z,95635.06
2019-04-07T08:58:25.117Z,95624.84
2019-04-07T09:00:49.290Z,95624.28
2019-04-07T09:03:16.389Z,95614.32
2019-04-07T09:05:43.203Z,95618.97
2019-04-07T09:08:09.036Z,95619.53
2019-04-07T09:10:42.982Z,95603.52
2019-04-07T09:13:10.137Z,95614.01
2019-04-07T09:15:45.297Z,95615.69
2019-04-07T09:18:17.952Z,95627.47
2019-04-07T09:20:48.479Z,95621.76
2019-04-07T09:23:28.326Z,95612.52
2019-04-07T09:25:57.245Z,95623.96
2019-04-07T09:28:25.050Z,95623.80
2019-04-07T09:31:09.185Z,95622.27
2019-04-07T09:33:53.961Z,95622.55
2019-04-07T09:36:24.678Z,95625.49
2019-04-07T09:38:52.525Z,95608.30
2019-04-07T09:41:32.170Z,95613.69
2019-04-07T09:44:03.911Z,95609.38
2019-04-07T09:46:41.904Z,95616.99
2019-04-07T09:49:24.767Z,95615.39
2019-04-07T09:51:58.894Z,95614.75
2019-04-07T09:54:26.663Z,95619.40
2019-04-07T09:57:10.878Z,95622.77
2019-04-07T09:59:48.579Z,95621.70
2019-04-07T10:02:23.953Z,95621.11
2019-04-07T10:04:51.783Z,95616.55
2019-04-07T10:07:28.459Z,95618.31
2019-04-07T10:10:08.389Z,95618.45
2019-04-07T10:12:28.791Z,95629.80
2019-04-07T10:15:04.449Z,95624.38
2019-04-07T10:17:49.496Z,95628.06
2019-04-07T10:20:23.139Z,95632.61
2019-04-07T10:23:07.977Z,95623.32
2019-04-07T10:25:39.210Z,95622.82
2019-04-07T10:28:13.750Z,95627.48
2019-04-07T10:30:44.623Z,95632.52
2019-04-07T10:33:15.743Z,95633.77
2019-04-07T10:35:59.993Z,95621.83
2019-04-07T10:38:30.475Z,95620.44
2019-04-07T10:41:07.340Z,95617.16
2019-04-07T10:43:52.504Z,95623.78
2019-04-07T10:46:20.435Z,95625.94
2019-04-07T10:48:51.146Z,95624.39
2019-04-07T10:51:19.686Z,95621.74
2019-04-07T10:53:51.099Z,95622.86
2019-04-07T10:56:25.489Z,95627.38
2019-04-07T10:58:53.990Z,95633.14
2019-04-07T11:01:25.539Z,95621.41
2019-04-07T11:03:59.503Z,95630.03
2019-04-07T11:06:42.109Z,95631.63
2019-04-07T11:09:13.212Z,95622.38
2019-04-07T11:11:41.212Z,95626.20
2019-04-07T11:14:09.738Z,95624.50
2019-04-07T11:16:52.567Z,95616.30
2019-04-07T11:19:38.601Z,95619.45
2019-04-07T11:22:10.520Z,95627.36
2019-04-07T11:24:41.442Z,95616.52
2019-04-07T11:27:15.173Z,95628.34
2019-04-07T11:29:45.743Z,95631.78
2019-04-07T11:32:32.336Z,95623.61
2019-04-07T11:35:00.205Z,95623.61
2019-04-07T11:37:33.827Z,95621.86
2019-04-07T11:40:02.231Z,95632.30
2019-04-07T11:42:30.649Z,95629.38
2019-04-07T11:45:05.020Z,95631.97
2019-04-07T11:47:38.582Z,95633.12
2019-04-07T11:50:13.492Z,95628.05
2019-04-07T11:52:50.530Z,95622.80
2019-04-07T11:55:34.615Z,95626.80
2019-04-07T11:58:26.018Z,95634.34
2019-04-07T12:00:55.910Z,95622.08
2019-04-07T12:03:29.940Z,95627.56
2019-04-07T12:06:06.574Z,95618.50
2019-04-07T12:08:40.504Z,95627.98
2019-04-07T12:11:15.443Z,95628.66
2019-04-07T12:13:46.762Z,95630.05
2019-04-07T12:16:24.784Z,95629.93
2019-04-07T12:19:05.565Z,95630.48
2019-04-07T12:21:39.125Z,95633.33
2019-04-07T12:24:09.446Z,95630.67
2019-04-07T12:26:54.988Z,95632.70
2019-04-07T12:29:35.279Z,95636.35
2019-04-07T12:32:05.844Z,95634.83
2019-04-07T12:34:50.897Z,95636.86
2019-04-07T12:37:39.245Z,95639.06
2019-04-07T12:40:07.593Z,95636.83
2019-04-07T12:42:54.488Z,95637.80
2019-04-07T12:45:38.771Z,95627.27
2019-04-07T12:48:06.573Z,95626.45
2019-04-07T12:50:35.485Z,95621.64
2019-04-07T12:53:04.866Z,95624.17
2019-04-07T12:55:56.001Z,95628.05
2019-04-07T12:58:25.533Z,95626.77
2019-04-07T13:00:59.924Z,95623.98
2019-04-07T13:03:44.068Z,95625.69
2019-04-07T13:06:14.655Z,95621.30
2019-04-07T13:08:45.088Z,95626.25
2019-04-07T13:11:26.552Z,95630.61
2019-04-07T13:13:54.542Z,95626.81
2019-04-07T13:16:26.330Z,95621.84
2019-04-07T13:18:57.309Z,95624.92
2019-04-07T13:21:30.853Z,95627.14
2019-04-07T13:24:03.769Z,95628.20
2019-04-07T13:26:37.435Z,95626.98
2019-04-07T13:29:05.365Z,95628.64
2019-04-07T13:31:33.190Z,95628.72
2019-04-07T13:34:18.011Z,95634.11
2019-04-07T13:36:46.317Z,95633.02
2019-04-07T13:39:19.884Z,95635.50
2019-04-07T13:42:05.848Z,95637.27
2019-04-07T13:44:49.644Z,95636.50
2019-04-07T13:47:34.111Z,95631.74
2019-04-07T13:50:02.611Z,95645.72
2019-04-07T13:52:36.881Z,95642.25
2019-04-07T13:55:14.147Z,95638.16
2019-04-07T13:57:57.743Z,95643.17
2019-04-07T14:00:26.399Z,95640.86
2019-04-07T14:03:11.297Z,95639.94
2019-04-07T14:05:43.020Z,95640.17
2019-04-07T14:08:11.401Z,95646.97
2019-04-07T14:10:57.868Z,95646.97
2019-04-07T14:13:41.882Z,95645.08
2019-04-07T14:16:12.816Z,95646.21
2019-04-07T14:18:43.763Z,95647.31
2019-04-07T14:21:16.788Z,95653.38
2019-04-07T14:23:44.717Z,95652.05
2019-04-07T14:26:15.737Z,95654.50
2019-04-07T14:28:50.081Z,95657.91
2019-04-07T14:31:23.615Z,95652.86
2019-04-07T14:34:07.997Z,95654.59
2019-04-07T14:36:54.611Z,95654.13
2019-04-07T14:39:22.412Z,95663.45
2019-04-07T14:42:01.009Z,95661.97
2019-04-07T14:44:29.283Z,95657.30
2019-04-07T14:47:03.298Z,95652.29
2019-04-07T14:49:39.837Z,95654.64
2019-04-07T14:52:07.675Z,95658.25
2019-04-07T14:54:38.595Z,95653.88
2019-04-07T14:57:10.390Z,95650.41
2019-04-07T14:59:47.383Z,95651.47
2019-04-07T15:02:15.595Z,95657.09
2019-04-07T15:05:01.296Z,95655.53
2019-04-07T15:07:34.789Z,95657.80
2019-04-07T15:10:12.387Z,95659.81
2019-04-07T15:12:41.408Z,95658.38
2019-04-07T15:15:11.344Z,95660.56
2019-04-07T15:17:36.954Z,95664.50
2019-04-07T15:20:07.469Z,95667.04
2019-04-07T15:22:33.535Z,95663.27
2019-04-07T15:25:00.136Z,95670.66
2019-04-07T15:27:27.212Z,95671.94
2019-04-07T15:29:53.137Z,95670.23
2019-04-07T15:32:21.184Z,95676.41
2019-04-07T15:34:46.870Z,95679.06
2019-04-07T15:37:13.152Z,95676.79
2019-04-07T15:39:39.618Z,95679.25
2019-04-07T15:42:07.980Z,95678.06
2019-04-07T15:44:33.558Z,95678.99
2019-04-07T15:46:59.404Z,95685.66
2019-04-07T15:49:27.984Z,95681.09
2019-04-07T15:51:53.990Z,95690.27
2019-04-07T15:54:22.982Z,95685.38
2019-04-07T15:56:49.240Z,95688.53
2019-04-07T15:59:17.601Z,95690.84
2019-04-07T16:01:44.080Z,95689.74
2019-04-07T16:04:09.967Z,95691.70
2019-04-07T16:06:37.006Z,95696.30
2019-04-07T16:09:10.719Z,95692.37
2019-04-07T16:11:33.834Z,95697.41
2019-04-07T16:13:59.735Z,95691.23
2019-04-07T16:16:28.448Z,95697.70
2019-04-07T16:18:53.401Z,95695.70
2019-04-07T16:21:19.521Z,95700.72
2019-04-07T16:23:49.017Z,95706.44
2019-04-07T16:26:13.275Z,95703.83
2019-04-07T16:28:43.253Z,95704.77
2019-04-07T16:31:07.724Z,95707.82
2019-04-07T16:33:35.971Z,95708.61
2019-04-07T16:36:02.098Z,95707.88
2019-04-07T16:38:29.546Z,95710.07
2019-04-07T16:40:56.011Z,95703.26
2019-04-07T16:43:22.119Z,95714.16
2019-04-07T16:45:48.564Z,95710.02
2019-04-07T16:48:14.401Z,95708.48
2019-04-07T16:50:40.301Z,95723.03
2019-04-07T16:53:07.823Z,95711.94
2019-04-07T16:55:37.238Z,95711.34
2019-04-07T16:58:03.903Z,95716.66
2019-04-07T17:00:29.859Z,95718.19
2019-04-07T17:02:55.838Z,95717.89
2019-04-07T17:05:24.329Z,95716.92
2019-04-07T17:07:50.817Z,95718.55
2019-04-07T17:10:16.819Z,95721.34
2019-04-07T17:12:42.803Z,95719.61
2019-04-07T17:15:08.830Z,95712.63
2019-04-07T17:17:35.683Z,95712.70
2019-04-07T17:20:06.834Z,95707.45
2019-04-07T17:22:33.688Z,95712.27
2019-04-07T17:25:02.631Z,95711.44
2019-04-07T17:27:27.600Z,95705.25
2019-04-07T17:29:55.297Z,95712.09
2019-04-07T17:32:21.849Z,95715.36
2019-04-07T17:34:47.889Z,95711.58
2019-04-07T17:37:14.058Z,95718.58
2019-04-07T17:39:51.428Z,95713.59
2019-04-07T17:42:19.745Z,95717.86
2019-04-07T17:44:49.194Z,95717.77
2019-04-07T17:47:23.351Z,95723.16
2019-04-07T17:49:57.617Z,95712.36
2019-04-07T17:52:30.386Z,95718.59
2019-04-07T17:55:04.261Z,95721.33
2019-04-07T17:57:44.990Z,95722.12
2019-04-07T18:00:28.040Z,95722.73
2019-04-07T18:03:04.845Z,95721.53
2019-04-07T18:05:40.721Z,95726.76
2019-04-07T18:08:17.884Z,95729.16
2019-04-07T18:10:59.757Z,95725.02
2019-04-07T18:13:44.072Z,95720.98
2019-04-07T18:16:09.710Z,95728.46
2019-04-07T18:18:38.805Z,95733.88
2019-04-07T18:21:13.196Z,95735.86
2019-04-07T18:23:58.747Z,95737.77
2019-04-07T18:26:40.286Z,95736.87
2019-04-07T18:29:13.602Z,95738.84
2019-04-07T18:31:50.907Z,95739.77
2019-04-07T18:34:23.853Z,95743.45
2019-04-07T18:36:49.202Z,95745.58
2019-04-07T18:39:26.207Z,95746.20
2019-04-07T18:42:12.589Z,95747.87
2019-04-07T18:44:41.309Z,95753.38
2019-04-07T18:47:15.420Z,95753.26
2019-04-07T18:49:55.130Z,95759.53
2019-04-07T18:52:25.723Z,95759.59
2019-04-07T18:54:55.681Z,95761.13
2019-04-07T18:57:29.468Z,95765.44
2019-04-07T19:00:15.084Z,95771.52
2019-04-07T19:02:46.465Z,95776.13
2019-04-07T19:05:34.226Z,95774.38
2019-04-07T19:08:04.683Z,95778.48
2019-04-07T19:10:38.947Z,95776.92
2019-04-07T19:13:27.264Z,95784.24
2019-04-07T19:15:55.443Z,95781.89
2019-04-07T19:18:27.110Z,95785.05
2019-04-07T19:21:13.823Z,95779.06
2019-04-07T19:23:41.775Z,95783.59
2019-04-07T19:26:18.060Z,95787.95
2019-04-07T19:28:47.686Z,95789.20
2019-04-07T19:31:19.471Z,95785.80
2019-04-07T19:34:03.384Z,95789.80
2019-04-07T19:36:44.372Z,95787.78
2019-04-07T19:39:26.993Z,95788.65
2019-04-07T19:42:00.940Z,95790.32
2019-04-07T19:44:49.707Z,95786.48
2019-04-07T19:47:31.270Z,95782.60
2019-04-07T19:50:10.166Z,95778.36
2019-04-07T19:52:47.674Z,95772.22
2019-04-07T19:55:22.628Z,95774.65
2019-04-07T19:57:58.010Z,95775.60
2019-04-07T20:00:31.896Z,95776.23
2019-04-07T20:03:16.077Z,95770.83
2019-04-07T20:05:43.919Z,95777.69
2019-04-07T20:08:32.442Z,95771.95
2019-04-07T20:11:04.122Z,95765.14
2019-04-07T20:13:40.629Z,95765.20
2019-04-07T20:16:24.187Z,95766.27
2019-04-07T20:18:59.387Z,95772.32
2019-04-07T20:21:38.220Z,95774.73
2019-04-07T20:24:09.291Z,95774.78
2019-04-07T20:26:40.518Z,95777.16
2019-04-07T20:29:12.018Z,95777.05
2019-04-07T20:31:53.366Z,95767.80
2019-04-07T20:34:40.135Z,95767.80
2019-04-07T20:37:12.716Z,95760.27
2019-04-07T20:39:43.663Z,95762.69
2019-04-07T20:42:15.887Z,95750.08
2019-04-07T20:44:41.154Z,95750.13
2019-04-07T20:47:08.887Z,95741.77
2019-04-07T20:49:41.154Z,95751.02
2019-04-07T20:52:14.212Z,95755.58
2019-04-07T20:54:48.738Z,95752.51
2019-04-07T20:57:23.758Z,95760.86
2019-04-07T21:00:06.955Z,95761.67
2019-04-07T21:02:36.316Z,95760.56
2019-04-07T21:05:08.423Z,95761.19
2019-04-07T21:07:39.667Z,95749.66
2019-04-07T21:10:11.191Z,95749.66
2019-04-07T21:12:51.218Z,95752.67
2019-04-07T21:15:26.032Z,95748.13
2019-04-07T21:17:51.187Z,95748.13
2019-04-07T21:20:30.991Z,95756.17
2019-04-07T21:22:59.542Z,95759.75
2019-04-07T21:25:42.327Z,95761.92
2019-04-07T21:28:10.546Z,95756.81
2019-04-07T21:30:43.015Z,95756.81
2019-04-07T21:33:28.208Z,95756.73
2019-04-07T21:36:04.336Z,95766.53
2019-04-07T21:38:37.776Z,95766.53
2019-04-07T21:41:06.087Z,95763.55
2019-04-07T21:43:42.604Z,95767.50
2019-04-07T21:46:13.366Z,95767.84
2019-04-07T21:48:50.730Z,95754.55
2019-04-07T21:51:21.599Z,95765.66
2019-04-07T21:53:55.226Z,95761.70
2019-04-07T21:56:47.780Z,95761.70
2019-04-07T21:59:18.999Z,95777.52
2019-04-07T22:01:53.760Z,95764.88
2019-04-07T22:04:34.075Z,95773.64
2019-04-07T22:07:18.245Z,95773.64
2019-04-07T22:09:49.403Z,95771.00
2019-04-07T22:12:14.523Z,95769.47
2019-04-07T22:14:42.896Z,95767.75
2019-04-07T22:17:08.338Z,95766.86
2019-04-07T22:19:34.181Z,95767.75
2019-04-07T22:22:00.364Z,95756.77
2019-04-07T22:24:26.378Z,95746.16
2019-04-07T22:26:52.930Z,95746.16
2019-04-07T22:29:18.972Z,95755.02
2019-04-07T22:31:49.730Z,95755.02
2019-04-07T22:34:16.421Z,95755.57
2019-04-07T22:36:45.490Z,95746.42
2019-04-07T22:39:10.228Z,95746.42
2019-04-07T22:41:37.002Z,95749.15
2019-04-07T22:44:03.937Z,95747.61
2019-04-07T22:46:29.765Z,95747.77
2019-04-07T22:48:58.343Z,95753.66
2019-04-07T22:51:23.360Z,95758.47
2019-04-07T22:53:49.649Z,95762.29
2019-04-07T22:56:16.077Z,95763.42
2019-04-07T22:58:42.320Z,95755.98
2019-04-07T23:01:09.024Z,95752.48
2019-04-07T23:03:34.948Z,95752.48
2019-04-07T23:06:01.044Z,95763.39
2019-04-07T23:08:26.931Z,95758.41
2019-04-07T23:10:52.846Z,95763.47
2019-04-07T23:13:19.434Z,95766.97
2019-04-07T23:15:46.442Z,95767.27
2019-04-07T23:18:13.703Z,95753.97
2019-04-07T23:20:39.732Z,95753.97
2019-04-07T23:23:05.619Z,95764.46
2019-04-07T23:25:32.281Z,95772.38
2019-04-07T23:27:58.460Z,95769.27
2019-04-07T23:30:26.379Z,95771.83
2019-04-07T23:32:52.333Z,95774.41
2019-04-07T23:35:18.170Z,95774.75
2019-04-07T23:37:44.043Z,95778.80
2019-04-07T23:40:10.659Z,95781.27
2019-04-07T23:42:36.581Z,95776.50
2019-04-07T23:45:06.597Z,95771.17
2019-04-07T23:47:32.461Z,95780.28
2019-04-07T23:49:58.686Z,95773.13
2019-04-07T23:52:25.132Z,95780.23
2019-04-07T23:54:51.027Z,95777.38
2019-04-07T23:57:17.725Z,95777.38
2019-04-07T23:59:44.305Z,95785.95
